Time;durP1;ratioP1;P1;durP2;ratioP2;P2;SDS_P1;SDS_P2;PMS_P1;PMS_P2;Temp;Humidity;BMP_temperature;BMP_pressure;BME280_temperature;BME280_humidity;BME280_pressure;Samples;Min_cycle;Max_cycle;Signal;HPM_P1;HPM_P2
2022/03/05 00:01:23;;;;;;;14.33;7.30;;;-2.20;99.90;-3.40;101085;;;;551254;256;24125;-80
2022/03/05 00:03:51;;;;;;;17.80;7.77;;;-2.10;99.90;-3.30;101090;;;;551412;256;24147;-82
2022/03/05 00:06:19;;;;;;;23.33;9.20;;;-2.10;99.90;-3.20;101084;;;;549826;256;24121;-81
2022/03/05 00:08:47;;;;;;;17.33;9.40;;;-2.00;99.90;-3.10;101083;;;;551281;256;24138;-82
2022/03/05 00:11:15;;;;;;;20.83;10.40;;;-1.90;99.90;-2.90;101084;;;;551556;255;24196;-81
2022/03/05 00:13:47;;;;;;;20.50;10.60;;;-1.80;99.90;-2.80;101085;;;;555870;256;24148;-80
2022/03/05 00:16:13;;;;;;;24.23;11.67;;;-1.50;99.90;-2.60;101090;;;;559757;256;24143;-82
2022/03/05 00:18:41;;;;;;;24.13;12.23;;;-1.40;99.90;-2.50;101093;;;;550377;256;24162;-79
2022/03/05 00:21:10;;;;;;;27.63;14.17;;;-1.20;99.90;-2.40;101103;;;;550369;256;24139;-79
2022/03/05 00:23:39;;;;;;;19.33;9.83;;;-1.10;99.90;-2.30;101086;;;;555251;256;24195;-81
2022/03/05 00:26:07;;;;;;;17.13;8.57;;;-1.00;99.90;-2.20;101094;;;;551718;256;24177;-81
2022/03/05 00:28:36;;;;;;;19.23;7.93;;;-0.90;99.90;-2.10;101091;;;;550275;256;24149;-81
2022/03/05 00:31:06;;;;;;;15.10;7.47;;;-0.80;99.90;-2.00;101091;;;;551522;256;24152;-81
2022/03/05 00:33:34;;;;;;;19.73;8.20;;;-0.80;99.90;-1.90;101091;;;;550153;256;24125;-80
2022/03/05 00:36:05;;;;;;;19.10;7.70;;;-0.70;99.90;-1.80;101089;;;;551495;256;24149;-81
2022/03/05 00:38:34;;;;;;;16.17;5.87;;;-0.60;99.90;-1.70;101088;;;;559185;256;24211;-82
2022/03/05 00:40:59;;;;;;;12.30;5.83;;;-0.50;99.90;-1.60;101085;;;;559459;256;24144;-80
2022/03/05 00:43:28;;;;;;;7.90;4.90;;;-0.40;99.90;-1.60;101088;;;;549608;256;24184;-79
2022/03/05 00:45:56;;;;;;;8.33;4.47;;;-0.40;99.90;-1.60;101082;;;;551134;256;24167;-81
2022/03/05 00:48:25;;;;;;;11.77;5.23;;;-0.40;99.90;-1.60;101078;;;;550933;256;24134;-81
2022/03/05 00:50:53;;;;;;;10.33;4.33;;;-0.40;99.90;-1.60;101079;;;;550943;256;25171;-81
2022/03/05 00:53:21;;;;;;;8.13;4.23;;;-0.40;99.90;-1.60;101076;;;;550699;256;24147;-80
2022/03/05 00:55:49;;;;;;;13.10;4.50;;;-0.40;99.90;-1.60;101079;;;;549267;256;24149;-81
2022/03/05 00:58:17;;;;;;;12.80;4.97;;;-0.40;99.90;-1.60;101080;;;;559024;256;24191;-80
2022/03/05 01:00:45;;;;;;;9.20;4.73;;;-0.50;99.90;-1.70;101075;;;;550544;256;24142;-80
2022/03/05 01:03:12;;;;;;;11.37;4.40;;;-0.50;99.90;-1.70;101084;;;;549400;256;24176;-81
2022/03/05 01:05:44;;;;;;;10.43;4.90;;;-0.60;99.90;-1.80;101078;;;;550934;256;24164;-81
2022/03/05 01:08:09;;;;;;;8.67;3.90;;;-0.60;99.90;-1.80;101076;;;;549143;256;24125;-80
2022/03/05 01:10:36;;;;;;;9.03;3.70;;;-0.70;99.90;-1.90;101069;;;;550905;256;24196;-82
2022/03/05 01:13:05;;;;;;;11.60;4.80;;;-0.70;99.90;-1.90;101078;;;;550951;256;24202;-81
2022/03/05 01:15:34;;;;;;;9.03;4.00;;;-0.80;99.90;-2.00;101074;;;;554344;256;24137;-80
2022/03/05 01:18:02;;;;;;;10.57;3.87;;;-0.80;99.90;-2.00;101089;;;;550921;256;24203;-80
2022/03/05 01:20:32;;;;;;;7.33;3.70;;;-0.90;99.90;-2.00;101086;;;;551121;256;24125;-80
2022/03/05 01:22:57;;;;;;;7.63;3.73;;;-0.90;99.90;-2.10;101077;;;;550081;255;24153;-81
2022/03/05 01:25:26;;;;;;;5.50;3.50;;;-0.90;99.90;-2.00;101075;;;;552348;256;25198;-80
2022/03/05 01:27:53;;;;;;;9.50;4.17;;;-1.00;99.90;-2.00;101095;;;;552053;256;24143;-81
2022/03/05 01:30:21;;;;;;;6.90;3.10;;;-0.90;99.90;-2.00;101081;;;;551921;256;24149;-81
2022/03/05 01:32:49;;;;;;;8.17;3.63;;;-0.90;99.90;-1.90;101080;;;;551654;256;24193;-82
2022/03/05 01:35:19;;;;;;;8.20;3.00;;;-0.70;99.90;-1.80;101078;;;;555369;256;24162;-80
2022/03/05 01:37:48;;;;;;;4.00;2.37;;;-0.70;99.90;-1.70;101085;;;;551673;256;24281;-79
2022/03/05 01:40:16;;;;;;;3.90;2.43;;;-0.60;99.90;-1.60;101081;;;;550100;256;24185;-81
2022/03/05 01:42:44;;;;;;;2.00;1.80;;;-0.60;99.90;-1.60;101085;;;;551193;256;24143;-81
2022/03/05 01:45:13;;;;;;;3.23;2.27;;;-0.50;99.90;-1.60;101091;;;;549513;256;24171;-80
2022/03/05 01:47:41;;;;;;;1.93;1.60;;;-0.50;99.90;-1.50;101087;;;;559396;256;24228;-80
2022/03/05 01:50:09;;;;;;;1.77;1.43;;;-0.40;99.90;-1.50;101093;;;;549493;256;24193;-80
2022/03/05 01:52:37;;;;;;;1.90;1.17;;;-0.40;99.90;-1.40;101093;;;;548545;256;24186;-82
2022/03/05 01:55:05;;;;;;;4.20;1.67;;;-0.30;99.90;-1.40;101092;;;;550832;256;24203;-81
2022/03/05 01:57:33;;;;;;;1.93;1.50;;;-0.30;99.90;-1.30;101107;;;;558873;256;24160;-80
2022/03/05 02:00:01;;;;;;;5.77;1.67;;;-0.20;99.90;-1.30;101099;;;;553992;256;24178;-80
2022/03/05 02:02:32;;;;;;;8.57;2.00;;;-0.20;99.90;-1.20;101100;;;;554161;256;35564;-80
2022/03/05 02:04:57;;;;;;;1.43;1.20;;;-0.10;99.90;-1.10;101095;;;;549107;256;24142;-80
2022/03/05 02:07:24;;;;;;;1.77;1.30;;;-0.10;99.90;-1.10;101089;;;;554494;256;24137;-80
2022/03/05 02:09:55;;;;;;;0.97;0.97;;;0.00;99.90;-1.00;101092;;;;549463;256;24145;-79
2022/03/05 02:12:20;;;;;;;1.23;1.10;;;0.10;99.90;-0.90;101102;;;;550919;256;24152;-79
2022/03/05 02:14:49;;;;;;;3.93;0.90;;;0.20;99.90;-0.90;101099;;;;550983;256;24187;-81
2022/03/05 02:17:18;;;;;;;1.23;1.07;;;0.10;99.90;-0.90;101099;;;;551046;256;24177;-81
2022/03/05 02:19:49;;;;;;;0.47;0.47;;;0.20;99.90;-0.90;101101;;;;559320;256;24146;-81
2022/03/05 02:22:13;;;;;;;5.00;1.37;;;0.20;99.90;-0.90;101087;;;;559368;256;24144;-84
2022/03/05 02:24:42;;;;;;;1.60;0.83;;;0.10;99.90;-1.00;101107;;;;551535;256;24148;-81
2022/03/05 02:27:10;;;;;;;1.80;1.10;;;0.10;99.90;-1.10;101093;;;;551524;256;24137;-82
2022/03/05 02:29:41;;;;;;;0.60;0.50;;;0.00;99.90;-1.10;101083;;;;551283;256;24161;-81
2022/03/05 02:32:06;;;;;;;0.80;0.70;;;-0.10;99.90;-1.20;101085;;;;550938;256;24198;-81
2022/03/05 02:34:34;;;;;;;1.60;0.60;;;-0.10;99.90;-1.10;101091;;;;550370;255;24147;-81
2022/03/05 02:37:02;;;;;;;1.80;0.67;;;-0.10;99.90;-1.10;101101;;;;551236;256;24169;-82
2022/03/05 02:39:32;;;;;;;1.13;0.60;;;0.00;99.90;-1.00;101091;;;;552491;256;24165;-81
2022/03/05 02:41:57;;;;;;;3.87;1.10;;;0.00;99.90;-1.00;101090;;;;560136;256;24220;-81
2022/03/05 02:44:25;;;;;;;0.73;0.63;;;0.10;99.90;-0.90;101099;;;;550929;256;24169;-82
2022/03/05 02:46:58;;;;;;;1.67;0.90;;;0.20;99.90;-0.90;101093;;;;560122;256;25237;-81
2022/03/05 02:49:22;;;;;;;2.23;0.80;;;0.10;99.90;-0.80;101094;;;;559398;253;25262;-81
2022/03/05 02:51:50;;;;;;;3.33;0.70;;;0.20;99.90;-0.70;101103;;;;551458;256;24140;-80
2022/03/05 02:54:22;;;;;;;1.23;0.90;;;0.30;99.90;-0.70;101102;;;;549632;256;24159;-82
2022/03/05 02:56:49;;;;;;;1.43;0.80;;;0.30;99.90;-0.70;101090;;;;551492;256;24137;-80
2022/03/05 02:59:15;;;;;;;1.20;0.77;;;0.40;99.90;-0.60;101099;;;;549265;256;24194;-82
2022/03/05 03:01:43;;;;;;;0.83;0.80;;;0.40;99.90;-0.60;101089;;;;551243;256;24155;-81
2022/03/05 03:04:11;;;;;;;0.60;0.60;;;0.40;99.90;-0.60;101096;;;;549347;256;24195;-80
2022/03/05 03:06:39;;;;;;;1.57;0.80;;;0.40;99.90;-0.60;101101;;;;550662;256;24180;-80
2022/03/05 03:09:08;;;;;;;1.47;1.23;;;0.50;99.90;-0.60;101091;;;;560386;256;24161;-80
2022/03/05 03:11:36;;;;;;;0.50;0.50;;;0.50;99.90;-0.60;101100;;;;550584;256;24143;-80
2022/03/05 03:14:03;;;;;;;1.97;1.03;;;0.50;99.90;-0.50;101094;;;;550556;256;24145;-81
2022/03/05 03:16:31;;;;;;;2.43;0.70;;;0.50;99.90;-0.50;101092;;;;550460;256;24142;-80
2022/03/05 03:18:59;;;;;;;0.60;0.60;;;0.60;99.90;-0.50;101094;;;;550567;256;24180;-79
2022/03/05 03:21:27;;;;;;;1.57;0.77;;;0.50;99.90;-0.50;101085;;;;550481;256;24203;-81
2022/03/05 03:23:55;;;;;;;1.33;0.80;;;0.50;99.90;-0.50;101092;;;;550402;256;24189;-81
2022/03/05 03:26:23;;;;;;;1.03;0.90;;;0.50;99.90;-0.50;101102;;;;550539;256;24160;-81
2022/03/05 03:28:55;;;;;;;1.93;1.00;;;0.60;99.90;-0.50;101093;;;;550501;256;24196;-81
2022/03/05 03:31:19;;;;;;;0.50;0.50;;;0.60;99.90;-0.50;101099;;;;550215;256;24150;-79
2022/03/05 03:33:47;;;;;;;3.10;1.23;;;0.60;99.90;-0.50;101104;;;;550626;256;24179;-79
2022/03/05 03:36:16;;;;;;;7.43;0.60;;;0.60;99.90;-0.50;101099;;;;548910;256;24209;-81
2022/03/05 03:38:44;;;;;;;2.00;1.10;;;0.60;99.90;-0.50;101107;;;;550582;256;24141;-81
2022/03/05 03:41:13;;;;;;;1.70;0.60;;;0.60;99.90;-0.50;101107;;;;550484;256;24174;-81
2022/03/05 03:43:42;;;;;;;2.13;1.00;;;0.60;99.90;-0.50;101108;;;;558736;256;24173;-80
2022/03/05 03:46:13;;;;;;;2.45;1.87;;;0.60;99.90;-0.40;101108;;;;546304;256;35544;-80
2022/03/05 03:48:38;;;;;;;1.00;0.90;;;0.60;99.90;-0.50;101109;;;;560112;252;24156;-80
2022/03/05 03:51:07;;;;;;;1.03;0.80;;;0.60;99.90;-0.40;101119;;;;559889;256;24163;-81
2022/03/05 03:53:35;;;;;;;0.97;0.60;;;0.60;99.90;-0.40;101122;;;;551684;256;24237;-80
2022/03/05 03:56:04;;;;;;;0.90;0.60;;;0.70;99.90;-0.40;101117;;;;550050;256;24132;-81
2022/03/05 03:58:35;;;;;;;0.37;0.30;;;0.70;99.90;-0.40;101123;;;;559542;254;24121;-81
2022/03/05 04:01:03;;;;;;;1.00;0.90;;;0.70;99.90;-0.40;101114;;;;549483;256;24147;-80
2022/03/05 04:03:27;;;;;;;0.40;0.40;;;0.70;99.90;-0.50;101112;;;;549281;254;24144;-80
2022/03/05 04:05:57;;;;;;;0.70;0.70;;;0.60;99.90;-0.50;101118;;;;559096;256;24142;-80
2022/03/05 04:08:43;;;;;;;0.90;0.90;;;0.60;99.90;-0.50;101122;;;;550968;256;24160;-80
2022/03/05 04:11:17;;;;;;;3.63;0.80;;;0.60;99.90;-0.50;101129;;;;559438;256;24161;-80
2022/03/05 04:13:46;;;;;;;1.17;0.70;;;0.60;99.90;-0.50;101127;;;;549317;256;24143;-80
2022/03/05 04:16:10;;;;;;;2.90;1.07;;;0.60;99.90;-0.50;101124;;;;549716;256;24165;-83
2022/03/05 04:18:39;;;;;;;2.27;0.80;;;0.60;99.90;-0.50;101123;;;;550400;256;24185;-81
2022/03/05 04:21:08;;;;;;;1.80;1.13;;;0.60;99.90;-0.50;101118;;;;550909;256;24225;-80
2022/03/05 04:23:36;;;;;;;5.97;0.70;;;0.60;99.90;-0.60;101126;;;;551435;256;24138;-79
2022/03/05 04:26:04;;;;;;;0.80;0.80;;;0.50;99.90;-0.60;101124;;;;551313;256;24152;-81
2022/03/05 04:28:32;;;;;;;0.30;0.30;;;0.50;99.90;-0.60;101131;;;;551517;256;24174;-81
2022/03/05 04:31:00;;;;;;;3.43;0.83;;;0.50;99.90;-0.60;101132;;;;560142;256;24165;-80
2022/03/05 04:33:33;;;;;;;0.60;0.50;;;0.50;99.90;-0.60;101131;;;;551848;256;24136;-80
2022/03/05 04:35:57;;;;;;;1.33;0.50;;;0.50;99.90;-0.70;101126;;;;549294;256;24172;-80
2022/03/05 04:38:25;;;;;;;1.00;0.90;;;0.40;99.90;-0.70;101134;;;;559654;256;24128;-81
2022/03/05 04:40:53;;;;;;;0.60;0.50;;;0.40;99.90;-0.70;101135;;;;551662;256;24165;-79
2022/03/05 04:43:21;;;;;;;1.60;0.87;;;0.40;99.90;-0.70;101130;;;;551521;256;24154;-79
2022/03/05 04:45:52;;;;;;;0.40;0.40;;;0.30;99.90;-0.70;101139;;;;559268;256;24147;-82
2022/03/05 04:48:18;;;;;;;4.33;0.67;;;0.30;99.90;-0.80;101138;;;;551755;256;24147;-82
2022/03/05 04:50:48;;;;;;;0.60;0.60;;;0.30;99.90;-0.80;101142;;;;549047;256;24199;-81
2022/03/05 04:53:19;;;;;;;0.60;0.60;;;0.30;99.90;-0.80;101131;;;;559490;256;24225;-83
2022/03/05 04:55:44;;;;;;;0.30;0.30;;;0.30;99.90;-0.70;101135;;;;551171;256;24155;-80
2022/03/05 04:58:12;;;;;;;2.00;0.60;;;0.30;99.90;-0.80;101139;;;;551563;256;24127;-81
2022/03/05 05:00:39;;;;;;;3.30;0.50;;;0.30;99.90;-0.80;101143;;;;560117;256;24124;-80
2022/03/05 05:03:07;;;;;;;0.47;0.40;;;0.30;99.90;-0.80;101150;;;;551380;256;24135;-80
2022/03/05 05:05:36;;;;;;;6.23;0.80;;;0.30;99.90;-0.80;101146;;;;551440;256;24204;-80
2022/03/05 05:08:07;;;;;;;2.97;1.10;;;0.20;99.90;-0.90;101149;;;;560023;256;24135;-81
2022/03/05 05:10:35;;;;;;;0.30;0.30;;;0.20;99.90;-0.90;101155;;;;551617;256;24135;-82
2022/03/05 05:13:00;;;;;;;0.33;0.33;;;0.20;99.90;-0.90;101148;;;;559707;256;24193;-81
2022/03/05 05:15:28;;;;;;;3.80;0.60;;;0.10;99.90;-1.00;101147;;;;551370;256;24132;-79
2022/03/05 05:17:59;;;;;;;0.80;0.43;;;0.10;99.90;-1.00;101152;;;;551297;256;24223;-81
2022/03/05 05:20:25;;;;;;;1.13;0.60;;;0.10;99.90;-1.00;101148;;;;551172;256;24197;-82
2022/03/05 05:22:54;;;;;;;0.57;0.57;;;0.10;99.90;-1.00;101154;;;;551388;256;24198;-82
2022/03/05 05:25:26;;;;;;;0.50;0.50;;;0.10;99.90;-1.00;101161;;;;551328;256;24170;-81
2022/03/05 05:27:50;;;;;;;1.20;0.80;;;0.10;99.90;-1.00;101163;;;;550982;256;24137;-81
2022/03/05 05:30:18;;;;;;;0.60;0.60;;;0.10;99.90;-1.00;101167;;;;559504;254;24139;-81
2022/03/05 05:32:46;;;;;;;1.33;0.53;;;0.10;99.90;-1.00;101160;;;;550649;256;24140;-80
2022/03/05 05:35:14;;;;;;;0.40;0.40;;;0.10;99.90;-1.00;101161;;;;550505;256;24183;-82
2022/03/05 05:37:41;;;;;;;0.27;0.27;;;0.10;99.90;-1.00;101161;;;;549790;256;24148;-80
2022/03/05 05:40:13;;;;;;;0.90;0.90;;;0.10;99.90;-1.00;101166;;;;549746;256;24140;-79
2022/03/05 05:42:39;;;;;;;2.77;0.73;;;0.00;99.90;-1.00;101160;;;;550898;256;24155;-79
2022/03/05 05:45:11;;;;;;;1.07;0.40;;;0.10;99.90;-1.00;101164;;;;549661;256;24128;-82
2022/03/05 05:47:38;;;;;;;2.20;0.70;;;0.10;99.90;-0.90;101166;;;;551588;256;24231;-80
2022/03/05 05:50:07;;;;;;;0.80;0.50;;;0.10;99.90;-1.00;101171;;;;559543;253;24166;-82
2022/03/05 05:52:34;;;;;;;0.73;0.73;;;0.10;99.90;-1.00;101170;;;;558924;256;24231;-80
2022/03/05 05:55:02;;;;;;;1.30;0.60;;;0.10;99.90;-0.90;101170;;;;548831;256;24146;-80
2022/03/05 05:57:28;;;;;;;3.97;1.20;;;0.20;99.90;-0.90;101177;;;;549254;256;24163;-80
2022/03/05 05:59:55;;;;;;;1.57;0.60;;;0.20;99.90;-0.80;101171;;;;549570;256;24155;-81
2022/03/05 06:02:25;;;;;;;2.62;1.12;;;0.20;99.90;-0.80;101169;;;;546255;256;35499;-81
2022/03/05 06:04:52;;;;;;;0.53;0.53;;;0.30;99.90;-0.70;101164;;;;559153;256;24133;-79
2022/03/05 06:07:21;;;;;;;0.60;0.60;;;0.40;99.90;-0.70;101168;;;;550531;256;24166;-81
2022/03/05 06:09:49;;;;;;;2.63;0.90;;;0.40;99.90;-0.60;101168;;;;551385;256;24153;-80
2022/03/05 06:12:17;;;;;;;0.50;0.50;;;0.50;99.90;-0.50;101169;;;;551611;256;24254;-80
2022/03/05 06:14:45;;;;;;;0.57;0.57;;;0.60;99.90;-0.40;101172;;;;551961;256;24178;-79
2022/03/05 06:17:13;;;;;;;0.60;0.60;;;0.70;99.90;-0.30;101175;;;;551684;256;24140;-80
2022/03/05 06:19:42;;;;;;;0.70;0.70;;;0.70;99.90;-0.30;101178;;;;551157;256;24191;-80
2022/03/05 06:22:09;;;;;;;0.97;0.70;;;0.80;99.90;-0.20;101174;;;;551318;256;24159;-81
2022/03/05 06:24:37;;;;;;;0.50;0.40;;;0.80;99.90;-0.20;101183;;;;551230;256;24140;-80
2022/03/05 06:27:05;;;;;;;2.60;1.33;;;0.80;99.90;-0.20;101187;;;;550949;256;24194;-80
2022/03/05 06:29:34;;;;;;;0.50;0.50;;;0.80;99.90;-0.30;101175;;;;550704;256;24138;-81
2022/03/05 06:32:02;;;;;;;1.00;0.90;;;0.80;99.90;-0.30;101183;;;;550768;256;24125;-80
2022/03/05 06:34:31;;;;;;;0.90;0.90;;;0.80;99.90;-0.30;101186;;;;558830;256;24133;-81
2022/03/05 06:37:00;;;;;;;0.90;0.90;;;0.80;99.90;-0.20;101194;;;;550647;256;24173;-81
2022/03/05 06:39:29;;;;;;;0.83;0.80;;;0.80;99.90;-0.20;101199;;;;550614;256;24125;-81
2022/03/05 06:41:54;;;;;;;1.13;1.03;;;0.90;99.90;-0.10;101203;;;;548782;256;24202;-80
2022/03/05 06:44:22;;;;;;;1.13;0.80;;;0.90;99.90;-0.10;101199;;;;559130;256;24268;-83
2022/03/05 06:46:50;;;;;;;3.03;0.70;;;1.00;99.90;-0.10;101195;;;;550952;256;24139;-82
2022/03/05 06:49:18;;;;;;;1.43;1.10;;;1.00;99.90;-0.10;101203;;;;548991;256;24209;-80
2022/03/05 06:51:46;;;;;;;0.53;0.53;;;1.00;99.90;0.00;101199;;;;550611;256;24123;-80
2022/03/05 06:54:13;;;;;;;0.67;0.67;;;1.00;99.90;0.10;101198;;;;558810;256;24164;-79
2022/03/05 06:56:41;;;;;;;0.70;0.63;;;1.10;99.90;0.20;101203;;;;558741;256;24139;-81
2022/03/05 06:59:09;;;;;;;1.70;0.83;;;1.20;99.90;0.20;101204;;;;558860;256;24179;-81
2022/03/05 07:01:37;;;;;;;1.50;0.90;;;1.30;99.90;0.20;101204;;;;558824;256;24168;-81
2022/03/05 07:04:05;;;;;;;0.77;0.60;;;1.30;99.90;0.30;101200;;;;558799;256;24164;-82
2022/03/05 07:06:33;;;;;;;3.00;0.60;;;1.30;99.90;0.40;101211;;;;558905;256;24236;-82
2022/03/05 07:09:01;;;;;;;1.37;0.80;;;1.40;99.90;0.80;101209;;;;550463;256;24191;-83
2022/03/05 07:11:30;;;;;;;4.37;0.87;;;3.30;99.90;3.20;101227;;;;550034;256;24153;-79
2022/03/05 07:13:57;;;;;;;0.90;0.90;;;3.30;99.90;6.70;101238;;;;558389;256;24131;-81
2022/03/05 07:16:27;;;;;;;1.07;1.07;;;9.20;91.30;9.60;101239;;;;558417;256;24183;-79
2022/03/05 07:18:56;;;;;;;1.20;1.10;;;9.20;91.30;11.20;101244;;;;558412;256;24250;-79
2022/03/05 07:21:23;;;;;;;1.90;0.80;;;11.30;72.60;10.70;101243;;;;551095;256;24151;-79
2022/03/05 07:23:51;;;;;;;0.67;0.67;;;11.70;65.20;8.90;101232;;;;551476;256;24259;-79
2022/03/05 07:26:23;;;;;;;0.80;0.80;;;10.70;64.10;7.10;101230;;;;559587;256;24179;-81
2022/03/05 07:28:47;;;;;;;0.77;0.73;;;9.30;66.30;6.10;101229;;;;559052;256;24172;-80
2022/03/05 07:31:15;;;;;;;1.27;0.97;;;8.00;70.00;5.50;101223;;;;559508;256;24154;-81
2022/03/05 07:33:43;;;;;;;3.90;1.23;;;7.10;73.40;5.10;101229;;;;559043;256;24134;-79
2022/03/05 07:36:10;;;;;;;1.90;1.40;;;6.50;76.00;4.90;101221;;;;558866;256;24135;-78
2022/03/05 07:38:43;;;;;;;1.53;1.10;;;6.10;77.20;4.90;101232;;;;550395;256;24140;-79
2022/03/05 07:41:06;;;;;;;4.83;1.10;;;6.00;78.40;5.80;101234;;;;558592;256;24237;-78
2022/03/05 07:43:34;;;;;;;0.80;0.80;;;6.40;80.00;8.20;101250;;;;558840;256;24177;-80
2022/03/05 07:46:02;;;;;;;0.97;0.93;;;8.20;76.40;9.70;101248;;;;558751;256;24159;-78
2022/03/05 07:48:33;;;;;;;2.93;1.23;;;10.00;69.60;9.50;101244;;;;558688;256;24219;-80
2022/03/05 07:50:59;;;;;;;1.30;0.80;;;10.30;65.10;8.30;101243;;;;558498;256;25253;-80
2022/03/05 07:53:26;;;;;;;1.80;0.83;;;9.80;64.80;7.30;101245;;;;558739;256;25233;-79
2022/03/05 07:55:58;;;;;;;0.67;0.67;;;8.10;69.00;6.40;101227;;;;550833;256;24132;-79
2022/03/05 07:58:23;;;;;;;1.57;0.60;;;7.70;72.10;6.60;101239;;;;550553;256;24228;-79
2022/03/05 08:00:51;;;;;;;2.43;0.90;;;7.70;72.10;7.40;101236;;;;558623;256;24207;-79
2022/03/05 08:03:19;;;;;;;2.07;1.10;;;8.30;70.30;7.10;101242;;;;558687;256;24137;-81
2022/03/05 08:05:47;;;;;;;0.80;0.80;;;8.20;70.00;6.20;101242;;;;550159;256;24168;-79
2022/03/05 08:08:15;;;;;;;6.43;0.80;;;7.60;71.00;5.60;101247;;;;558791;256;24143;-79
2022/03/05 08:10:43;;;;;;;0.60;0.53;;;7.00;73.30;5.00;101247;;;;558278;256;24143;-79
2022/03/05 08:13:12;;;;;;;0.57;0.50;;;6.40;74.60;4.30;101253;;;;558390;256;24158;-79
2022/03/05 08:15:38;;;;;;;3.47;0.90;;;5.80;75.80;4.00;101248;;;;558267;256;24201;-79
2022/03/05 08:18:09;;;;;;;1.23;0.80;;;5.30;77.90;4.00;101248;;;;558195;256;24194;-79
2022/03/05 08:20:34;;;;;;;1.17;0.80;;;5.20;80.00;3.90;101254;;;;549783;256;24164;-80
2022/03/05 08:23:03;;;;;;;2.67;1.48;;;5.00;81.70;3.90;101249;;;;553375;256;35529;-79
2022/03/05 08:25:34;;;;;;;4.13;1.27;;;5.00;81.70;3.90;101252;;;;558349;256;24235;-81
2022/03/05 08:27:59;;;;;;;2.77;1.17;;;5.00;82.40;3.80;101259;;;;547764;256;24145;-79
2022/03/05 08:30:27;;;;;;;0.70;0.70;;;4.90;82.40;3.80;101256;;;;549898;256;24201;-79
2022/03/05 08:32:54;;;;;;;0.80;0.63;;;4.90;82.80;3.70;101252;;;;559096;255;24142;-79
2022/03/05 08:35:22;;;;;;;3.20;0.80;;;4.80;83.20;3.80;101251;;;;559441;256;24159;-78
2022/03/05 08:37:50;;;;;;;6.40;1.13;;;4.80;83.80;3.90;101267;;;;557592;256;24204;-80
2022/03/05 08:40:21;;;;;;;0.90;0.87;;;4.90;83.80;3.90;101256;;;;560249;256;24186;-81
2022/03/05 08:42:49;;;;;;;1.60;0.90;;;5.00;83.70;3.80;101249;;;;556742;256;24203;-83
2022/03/05 08:45:18;;;;;;;1.33;1.00;;;4.90;82.70;3.80;101252;;;;559916;256;24140;-80
2022/03/05 08:47:44;;;;;;;0.83;0.53;;;4.80;83.20;3.60;101262;;;;556897;256;24120;-80
2022/03/05 08:50:11;;;;;;;0.60;0.60;;;4.70;83.10;3.40;101260;;;;560222;253;24154;-81
2022/03/05 08:52:39;;;;;;;0.60;0.60;;;4.60;84.10;3.30;101262;;;;551119;256;24206;-80
2022/03/05 08:55:09;;;;;;;1.37;1.27;;;4.50;85.50;3.20;101274;;;;551393;256;24178;-79
2022/03/05 08:57:41;;;;;;;2.93;1.43;;;4.40;86.50;3.20;101259;;;;549792;256;24148;-80
2022/03/05 09:00:05;;;;;;;8.33;1.47;;;4.30;87.50;3.20;101260;;;;561454;255;24175;-82
2022/03/05 09:02:33;;;;;;;1.17;0.80;;;4.30;88.70;3.10;101271;;;;551555;256;24143;-80
2022/03/05 09:05:05;;;;;;;1.27;0.70;;;4.20;89.50;3.10;101270;;;;560619;256;24137;-80
2022/03/05 09:07:29;;;;;;;6.97;1.07;;;4.20;89.80;3.10;101261;;;;560606;256;24181;-80
2022/03/05 09:09:57;;;;;;;5.33;1.17;;;4.20;89.10;3.10;101265;;;;558459;256;25255;-80
2022/03/05 09:12:25;;;;;;;1.50;0.50;;;4.10;89.70;3.10;101264;;;;550029;256;24197;-80
2022/03/05 09:14:55;;;;;;;0.40;0.40;;;4.10;89.80;3.40;101277;;;;558408;256;24128;-80
2022/03/05 09:17:27;;;;;;;2.80;1.20;;;4.60;90.70;3.70;101277;;;;550004;256;24246;-80
2022/03/05 09:19:53;;;;;;;2.17;0.97;;;4.60;90.70;4.00;101278;;;;547843;256;26548;-80
2022/03/05 09:22:22;;;;;;;1.87;1.13;;;4.90;90.50;4.60;101275;;;;559063;256;24233;-81
2022/03/05 09:24:47;;;;;;;1.63;1.10;;;5.40;89.90;5.80;101275;;;;548953;256;24182;-80
2022/03/05 09:27:15;;;;;;;2.53;1.10;;;6.30;89.50;8.50;101285;;;;559432;256;24223;-81
2022/03/05 09:29:43;;;;;;;1.43;1.10;;;8.80;82.10;9.20;101287;;;;559909;256;24145;-82
2022/03/05 09:32:11;;;;;;;1.63;1.07;;;10.10;73.70;9.30;101290;;;;559395;256;24198;-82
2022/03/05 09:34:40;;;;;;;1.50;1.17;;;10.50;70.40;8.30;101293;;;;556559;256;24153;-80
2022/03/05 09:37:07;;;;;;;2.00;1.80;;;10.00;69.90;7.40;101293;;;;559612;256;24280;-81
2022/03/05 09:39:37;;;;;;;3.23;0.80;;;9.20;70.90;6.80;101290;;;;559609;256;24162;-82
2022/03/05 09:42:07;;;;;;;1.20;1.10;;;8.50;73.00;6.30;101282;;;;559676;256;24156;-79
2022/03/05 09:44:38;;;;;;;1.70;1.00;;;7.90;73.80;5.90;101287;;;;561935;254;24156;-81
2022/03/05 09:47:06;;;;;;;1.03;1.03;;;7.40;74.90;5.90;101286;;;;551748;256;24188;-81
2022/03/05 09:49:31;;;;;;;1.30;1.20;;;7.10;76.10;5.90;101299;;;;557367;254;24170;-81
2022/03/05 09:52:01;;;;;;;2.77;1.37;;;7.10;76.90;5.70;101297;;;;560201;255;24182;-79
2022/03/05 09:54:29;;;;;;;1.83;0.93;;;6.90;76.50;5.70;101298;;;;560334;256;24121;-80
2022/03/05 09:56:59;;;;;;;1.90;1.20;;;6.80;76.80;5.50;101297;;;;560185;256;24149;-82
2022/03/05 09:59:29;;;;;;;2.13;1.03;;;6.80;76.40;5.60;101291;;;;552195;256;24168;-83
2022/03/05 10:01:58;;;;;;;1.33;0.97;;;6.80;75.20;5.60;101294;;;;557387;256;24162;-81
2022/03/05 10:04:22;;;;;;;1.33;0.70;;;6.90;73.90;6.00;101303;;;;551878;256;24130;-80
2022/03/05 10:07:12;;;;;;;1.40;0.93;;;7.50;73.40;6.30;101289;;;;559304;256;24131;-80
2022/03/05 10:09:40;;;;;;;1.33;1.20;;;7.40;73.30;7.70;101298;;;;554559;256;24164;-79
2022/03/05 10:12:34;;;;;;;1.80;0.80;;;9.50;67.40;8.20;101307;;;;558877;256;24196;-80
2022/03/05 10:15:13;;;;;;;0.83;0.83;;;9.40;67.20;7.00;101296;;;;550509;256;24211;-79
2022/03/05 10:17:56;;;;;;;0.83;0.83;;;8.80;66.30;6.00;101289;;;;548325;256;24174;-79
2022/03/05 10:20:30;;;;;;;2.63;1.27;;;7.90;69.20;7.10;101302;;;;550586;256;24146;-79
2022/03/05 10:23:01;;;;;;;3.50;1.27;;;8.20;71.30;8.40;101303;;;;559176;256;26329;-80
2022/03/05 10:25:50;;;;;;;1.50;0.90;;;9.30;68.10;9.80;101307;;;;550361;256;24172;-80
2022/03/05 10:28:27;;;;;;;1.00;1.00;;;11.90;60.60;10.60;101306;;;;559207;256;24174;-80
2022/03/05 10:30:58;;;;;;;1.17;1.07;;;11.80;60.50;10.60;101306;;;;550772;256;24152;-80
2022/03/05 10:33:44;;;;;;;1.73;1.03;;;12.10;59.70;10.50;101310;;;;550383;256;24170;-80
2022/03/05 10:36:21;;;;;;;7.30;0.80;;;12.10;57.20;10.20;101313;;;;549377;256;24150;-79
2022/03/05 10:38:58;;;;;;;2.57;1.10;;;12.00;57.10;9.30;101306;;;;549155;256;24217;-80
2022/03/05 10:41:46;;;;;;;1.87;1.23;;;11.20;57.80;8.50;101292;;;;558799;256;24157;-78
2022/03/05 10:44:20;;;;;;;3.20;1.10;;;10.30;59.50;8.00;101297;;;;558523;256;24151;-80
2022/03/05 10:46:59;;;;;;;1.30;0.87;;;9.70;61.60;7.50;101297;;;;558447;256;24143;-80
2022/03/05 10:49:33;;;;;;;3.03;1.83;;;9.10;63.70;7.10;101298;;;;549054;256;24175;-79
2022/03/05 10:52:01;;;;;;;1.52;1.10;;;8.50;65.70;6.60;101296;;;;555438;256;35681;-81
2022/03/05 10:54:33;;;;;;;3.43;1.63;;;7.90;66.50;5.80;101288;;;;559014;256;24171;-80
2022/03/05 10:57:16;;;;;;;1.17;1.07;;;7.30;68.00;5.50;101294;;;;549457;256;24214;-79
2022/03/05 10:59:44;;;;;;;1.37;1.00;;;6.80;69.50;5.20;101284;;;;559780;256;24156;-80
2022/03/05 11:02:14;;;;;;;0.83;0.83;;;6.40;70.10;4.80;101291;;;;551160;256;24181;-79
2022/03/05 11:04:45;;;;;;;1.40;1.17;;;6.10;71.00;4.40;101283;;;;559465;256;24210;-80
2022/03/05 11:07:17;;;;;;;1.33;1.07;;;5.70;72.00;4.30;101290;;;;554789;256;24199;-79
2022/03/05 11:09:44;;;;;;;4.40;1.60;;;5.40;73.60;4.00;101282;;;;559522;256;24193;-78
2022/03/05 11:12:21;;;;;;;0.97;0.83;;;5.20;74.50;3.70;101283;;;;559212;256;24163;-79
2022/03/05 11:14:49;;;;;;;1.30;0.77;;;4.90;75.60;3.40;101277;;;;550810;256;24222;-80
2022/03/05 11:17:20;;;;;;;1.00;1.00;;;4.60;77.10;3.10;101276;;;;546025;256;35494;-80
2022/03/05 11:19:45;;;;;;;1.23;1.03;;;4.30;78.70;2.80;101273;;;;560339;256;24151;-81
2022/03/05 11:22:13;;;;;;;2.83;1.40;;;3.90;79.70;2.70;101280;;;;559285;256;24144;-80
2022/03/05 11:24:43;;;;;;;1.40;1.30;;;3.70;81.80;2.80;101275;;;;550719;256;24180;-80